Time;durP1;ratioP1;P1;durP2;ratioP2;P2;SDS_P1;SDS_P2;PMS_P1;PMS_P2;Temp;Humidity;BMP_temperature;BMP_pressure;BME280_temperature;BME280_humidity;BME280_pressure;Samples;Min_cycle;Max_cycle;Signal;HPM_P1;HPM_P2
2022/05/30 00:02:13;;;;;;;0.10;0.10;;;;;;;;;;5041233;28;20040;-87
2022/05/30 00:04:40;;;;;;;0.20;0.20;;;;;;;;;;5041933;28;20064;-86
2022/05/30 00:07:07;;;;;;;0.20;0.20;;;;;;;;;;5041253;28;20047;-87
2022/05/30 00:09:33;;;;;;;0.20;0.20;;;;;;;;;;5040850;28;20044;-87
2022/05/30 00:12:00;;;;;;;0.20;0.20;;;;;;;;;;5041381;28;20123;-87
2022/05/30 00:14:26;;;;;;;0.20;0.20;;;;;;;;;;5041117;28;20044;-87
2022/05/30 00:16:52;;;;;;;0.28;0.28;;;;;;;;;;5040743;28;20489;-86
2022/05/30 00:19:18;;;;;;;0.20;0.20;;;;;;;;;;5040804;28;20098;-86
2022/05/30 00:21:45;;;;;;;0.20;0.20;;;;;;;;;;5057811;28;20083;-87
2022/05/30 00:24:12;;;;;;;0.30;0.30;;;;;;;;;;5041069;28;20047;-87
2022/05/30 00:26:38;;;;;;;0.20;0.20;;;;;;;;;;5041208;28;20052;-87
2022/05/30 00:29:04;;;;;;;0.10;0.10;;;;;;;;;;5040789;28;20047;-87
2022/05/30 00:31:31;;;;;;;0.10;0.10;;;;;;;;;;5041281;28;20124;-87
2022/05/30 00:33:57;;;;;;;0.20;0.20;;;;;;;;;;5040626;28;20043;-86
2022/05/30 00:36:23;;;;;;;0.30;0.30;;;;;;;;;;5040967;28;20040;-87
2022/05/30 00:38:49;;;;;;;0.20;0.20;;;;;;;;;;5040838;28;20485;-87
2022/05/30 00:41:16;;;;;;;0.20;0.20;;;;;;;;;;5040428;28;20124;-87
2022/05/30 00:43:46;;;;;;;0.20;0.20;;;;;;;;;;5040667;28;20037;-87
2022/05/30 00:46:18;;;;;;;0.10;0.10;;;;;;;;;;5040641;28;20436;-87
2022/05/30 00:48:56;;;;;;;0.10;0.10;;;;;;;;;;5040458;28;20113;-86
2022/05/30 00:51:29;;;;;;;0.30;0.30;;;;;;;;;;5040334;28;20047;-86
2022/05/30 00:53:56;;;;;;;0.15;0.15;;;;;;;;;;5020721;28;20466;-87
2022/05/30 00:56:27;;;;;;;0.20;0.20;;;;;;;;;;5038663;28;20087;-87
2022/05/30 00:58:54;;;;;;;0.13;0.13;;;;;;;;;;5040215;28;20055;-87
2022/05/30 01:01:21;;;;;;;0.20;0.20;;;;;;;;;;5040144;28;20036;-86
2022/05/30 01:06:44;;;;;;;0.20;0.20;;;;;;;;;;5052311;28;20103;-85
2022/05/30 01:09:33;;;;;;;0.30;0.30;;;;;;;;;;5039843;28;20051;-87
2022/05/30 01:12:01;;;;;;;0.20;0.20;;;;;;;;;;5040124;28;20047;-87
2022/05/30 01:14:31;;;;;;;0.10;0.10;;;;;;;;;;5040290;28;20032;-87
2022/05/30 01:16:58;;;;;;;0.20;0.20;;;;;;;;;;5040086;28;20036;-87
2022/05/30 01:19:24;;;;;;;0.20;0.20;;;;;;;;;;5039952;28;20036;-86
2022/05/30 01:22:07;;;;;;;0.20;0.20;;;;;;;;;;5055730;28;20064;-87
2022/05/30 01:24:37;;;;;;;0.20;0.20;;;;;;;;;;5027488;28;20072;-87
2022/05/30 01:27:09;;;;;;;0.20;0.20;;;;;;;;;;5039324;28;20083;-87
2022/05/30 01:29:37;;;;;;;0.40;0.40;;;;;;;;;;5039655;28;20036;-87
2022/05/30 01:32:03;;;;;;;0.20;0.20;;;;;;;;;;5040040;28;20044;-88
2022/05/30 01:34:30;;;;;;;0.20;0.20;;;;;;;;;;5056360;28;20130;-87
2022/05/30 01:36:56;;;;;;;0.20;0.20;;;;;;;;;;5039391;28;20040;-87
2022/05/30 01:39:22;;;;;;;0.20;0.20;;;;;;;;;;5039673;28;20047;-86
2022/05/30 01:41:48;;;;;;;0.25;0.25;;;;;;;;;;5039757;28;20127;-87
2022/05/30 01:44:14;;;;;;;0.20;0.20;;;;;;;;;;5039358;28;20044;-87
2022/05/30 01:46:40;;;;;;;0.20;0.20;;;;;;;;;;5039495;28;20099;-87
2022/05/30 01:49:06;;;;;;;0.20;0.20;;;;;;;;;;5039642;28;20044;-87
2022/05/30 01:51:32;;;;;;;0.25;0.25;;;;;;;;;;5039237;28;20454;-87
2022/05/30 01:53:59;;;;;;;0.20;0.20;;;;;;;;;;5039300;28;20071;-87
2022/05/30 01:56:25;;;;;;;0.20;0.20;;;;;;;;;;5039250;28;20037;-87
2022/05/30 01:58:51;;;;;;;0.30;0.30;;;;;;;;;;5038946;28;20044;-86
2022/05/30 02:01:19;;;;;;;0.20;0.20;;;;;;;;;;5039133;28;20043;-87
2022/05/30 02:03:45;;;;;;;0.20;0.20;;;;;;;;;;5039507;28;20102;-87
2022/05/30 02:06:11;;;;;;;0.20;0.20;;;;;;;;;;5055420;28;20071;-87
2022/05/30 02:08:37;;;;;;;0.20;0.20;;;;;;;;;;5038995;28;20045;-86
2022/05/30 02:11:04;;;;;;;0.20;0.20;;;;;;;;;;5038450;28;20080;-87
2022/05/30 02:13:29;;;;;;;0.17;0.17;;;;;;;;;;5019855;28;20041;-87
2022/05/30 02:18:40;;;;;;;0.10;0.10;;;;;;;;;;5055390;28;20108;-86
2022/05/30 02:21:06;;;;;;;0.20;0.20;;;;;;;;;;5038915;28;20037;-87
2022/05/30 02:23:32;;;;;;;0.50;0.50;;;;;;;;;;5039042;28;20413;-87
2022/05/30 02:25:58;;;;;;;0.20;0.20;;;;;;;;;;5038589;28;20040;-87
2022/05/30 02:28:26;;;;;;;0.30;0.30;;;;;;;;;;5038802;28;20071;-87
2022/05/30 02:30:52;;;;;;;0.28;0.28;;;;;;;;;;5038747;28;20040;-86
2022/05/30 02:38:47;;;;;;;0.30;0.30;;;;;;;;;;5055097;28;20508;-86
2022/05/30 02:41:13;;;;;;;0.20;0.20;;;;;;;;;;5038906;28;20493;-86
2022/05/30 02:43:39;;;;;;;0.17;0.17;;;;;;;;;;5038241;28;20110;-86
2022/05/30 02:46:06;;;;;;;0.30;0.30;;;;;;;;;;5038487;28;20036;-87
2022/05/30 02:48:32;;;;;;;0.20;0.20;;;;;;;;;;5038963;28;20045;-87
2022/05/30 02:50:58;;;;;;;0.20;0.20;;;;;;;;;;5039392;28;20044;-87
2022/05/30 02:53:23;;;;;;;0.22;0.22;;;;;;;;;;5055199;28;20086;-87
2022/05/30 02:55:52;;;;;;;0.20;0.20;;;;;;;;;;5039102;28;20094;-86
2022/05/30 02:58:18;;;;;;;0.20;0.20;;;;;;;;;;5039731;28;20048;-87
2022/05/30 03:00:44;;;;;;;0.20;0.20;;;;;;;;;;5039118;28;20041;-87
2022/05/30 03:03:11;;;;;;;0.25;0.25;;;;;;;;;;5056160;28;20060;-85
2022/05/30 03:05:38;;;;;;;0.30;0.30;;;;;;;;;;5038981;28;20186;-86
2022/05/30 03:08:05;;;;;;;0.28;0.28;;;;;;;;;;5039302;28;20173;-87
2022/05/30 03:10:31;;;;;;;0.20;0.20;;;;;;;;;;5039026;28;20394;-87
2022/05/30 03:12:57;;;;;;;0.30;0.30;;;;;;;;;;5055298;28;20037;-87
2022/05/30 03:15:23;;;;;;;0.30;0.30;;;;;;;;;;5038957;28;20529;-87
2022/05/30 03:17:51;;;;;;;0.30;0.30;;;;;;;;;;5038819;28;20090;-87
2022/05/30 03:20:18;;;;;;;0.20;0.20;;;;;;;;;;5038774;28;20032;-86
2022/05/30 03:22:45;;;;;;;0.28;0.28;;;;;;;;;;5038844;28;20083;-87
2022/05/30 03:25:11;;;;;;;0.20;0.20;;;;;;;;;;5055358;28;20040;-85
2022/05/30 03:27:37;;;;;;;0.30;0.30;;;;;;;;;;5038403;28;20052;-87
2022/05/30 03:30:03;;;;;;;0.30;0.30;;;;;;;;;;5039110;28;20056;-87
2022/05/30 03:32:29;;;;;;;0.30;0.30;;;;;;;;;;5055145;28;20051;-87
2022/05/30 03:34:55;;;;;;;0.20;0.20;;;;;;;;;;5055564;28;20397;-87
2022/05/30 03:37:21;;;;;;;0.20;0.20;;;;;;;;;;5038283;28;20044;-87
2022/05/30 03:39:47;;;;;;;0.30;0.30;;;;;;;;;;5038655;28;20044;-87
2022/05/30 03:42:14;;;;;;;0.30;0.30;;;;;;;;;;5038864;28;20037;-87
2022/05/30 03:44:41;;;;;;;0.30;0.30;;;;;;;;;;5057150;28;20119;-87
2022/05/30 03:47:07;;;;;;;0.30;0.30;;;;;;;;;;5042012;28;20076;-87
2022/05/30 03:49:33;;;;;;;0.40;0.40;;;;;;;;;;5042202;28;20515;-87
2022/05/30 03:52:00;;;;;;;0.30;0.30;;;;;;;;;;5042154;28;20123;-86
2022/05/30 03:54:26;;;;;;;0.25;0.25;;;;;;;;;;5042543;28;20043;-87
2022/05/30 03:56:52;;;;;;;0.30;0.30;;;;;;;;;;5041759;28;20041;-86
2022/05/30 03:59:18;;;;;;;0.30;0.30;;;;;;;;;;5042111;28;20044;-86
2022/05/30 04:01:44;;;;;;;0.30;0.30;;;;;;;;;;5057679;28;20128;-86
2022/05/30 04:04:12;;;;;;;0.20;0.20;;;;;;;;;;5038878;28;20089;-86
2022/05/30 04:06:38;;;;;;;0.32;0.32;;;;;;;;;;5041517;28;20055;-86
2022/05/30 04:09:04;;;;;;;0.20;0.20;;;;;;;;;;5041138;28;20075;-86
2022/05/30 04:11:30;;;;;;;0.30;0.30;;;;;;;;;;5042295;28;20033;-86
2022/05/30 04:13:57;;;;;;;0.20;0.20;;;;;;;;;;5041561;28;20744;-86
2022/05/30 04:16:23;;;;;;;0.15;0.15;;;;;;;;;;5041006;28;20551;-85
2022/05/30 04:18:49;;;;;;;0.20;0.20;;;;;;;;;;5040881;28;20055;-86
2022/05/30 04:21:15;;;;;;;0.20;0.20;;;;;;;;;;5041170;28;20029;-86
2022/05/30 04:23:42;;;;;;;0.20;0.20;;;;;;;;;;5041008;28;20042;-87
2022/05/30 04:26:08;;;;;;;0.30;0.30;;;;;;;;;;5041166;28;20442;-85
2022/05/30 04:28:34;;;;;;;0.25;0.25;;;;;;;;;;5058297;28;20060;-86
2022/05/30 04:31:04;;;;;;;0.20;0.20;;;;;;;;;;5041083;28;20055;-87
2022/05/30 04:33:32;;;;;;;0.20;0.20;;;;;;;;;;5040916;28;20048;-87
2022/05/30 04:36:01;;;;;;;0.20;0.20;;;;;;;;;;5057878;28;20094;-87
2022/05/30 04:38:27;;;;;;;0.20;0.20;;;;;;;;;;5041266;28;20468;-87
2022/05/30 04:40:53;;;;;;;0.30;0.30;;;;;;;;;;5040979;28;20066;-86
2022/05/30 04:43:20;;;;;;;0.30;0.30;;;;;;;;;;5041520;28;20064;-86
2022/05/30 04:45:46;;;;;;;0.20;0.20;;;;;;;;;;5041166;28;20199;-86
2022/05/30 04:48:12;;;;;;;0.20;0.20;;;;;;;;;;5041113;28;20086;-86
2022/05/30 04:50:38;;;;;;;0.13;0.13;;;;;;;;;;5040863;28;20042;-86
2022/05/30 04:53:05;;;;;;;0.20;0.20;;;;;;;;;;5053111;28;20378;-87
2022/05/30 04:55:31;;;;;;;0.20;0.20;;;;;;;;;;5039720;28;20040;-87
2022/05/30 04:57:58;;;;;;;0.28;0.28;;;;;;;;;;5040504;28;20044;-86
2022/05/30 05:00:24;;;;;;;0.25;0.25;;;;;;;;;;5040301;28;20115;-87
2022/05/30 05:02:54;;;;;;;0.28;0.28;;;;;;;;;;5057786;28;20086;-87
2022/05/30 05:05:20;;;;;;;0.20;0.20;;;;;;;;;;5016446;28;20044;-87
2022/05/30 05:07:49;;;;;;;0.20;0.20;;;;;;;;;;5040919;28;20040;-86
2022/05/30 05:10:44;;;;;;;0.20;0.20;;;;;;;;;;5040213;28;20048;-87
2022/05/30 05:13:09;;;;;;;0.30;0.30;;;;;;;;;;5008847;28;20056;-86
2022/05/30 05:15:35;;;;;;;0.10;0.10;;;;;;;;;;5056746;28;20401;-86
2022/05/30 05:18:04;;;;;;;0.20;0.20;;;;;;;;;;5057181;28;20402;-87
2022/05/30 05:20:35;;;;;;;0.20;0.20;;;;;;;;;;5040283;28;20529;-86
2022/05/30 05:23:01;;;;;;;0.28;0.28;;;;;;;;;;5056620;28;20044;-86
2022/05/30 05:25:27;;;;;;;0.20;0.20;;;;;;;;;;5039250;28;20458;-88
2022/05/30 05:27:53;;;;;;;0.20;0.20;;;;;;;;;;5039773;28;20048;-87
2022/05/30 05:30:20;;;;;;;0.20;0.20;;;;;;;;;;5039641;28;20119;-87
2022/05/30 05:32:46;;;;;;;0.20;0.20;;;;;;;;;;5039277;28;20121;-87
2022/05/30 05:35:12;;;;;;;0.10;0.10;;;;;;;;;;5039465;28;20047;-87
2022/05/30 05:37:38;;;;;;;0.40;0.40;;;;;;;;;;5039125;28;20130;-87
2022/05/30 05:40:05;;;;;;;0.10;0.10;;;;;;;;;;5039687;28;20493;-87
2022/05/30 05:42:32;;;;;;;0.20;0.20;;;;;;;;;;5039319;28;20037;-87
2022/05/30 05:44:58;;;;;;;0.20;0.20;;;;;;;;;;5039149;28;20067;-87
2022/05/30 05:47:24;;;;;;;0.17;0.17;;;;;;;;;;5039835;28;20044;-86
2022/05/30 05:49:50;;;;;;;0.20;0.20;;;;;;;;;;5039384;28;20044;-86
2022/05/30 05:52:16;;;;;;;0.10;0.10;;;;;;;;;;5039652;28;20040;-86
2022/05/30 05:54:42;;;;;;;0.20;0.20;;;;;;;;;;5039303;28;20032;-87
2022/05/30 05:57:11;;;;;;;0.10;0.10;;;;;;;;;;5039257;28;20044;-86
2022/05/30 05:59:37;;;;;;;0.17;0.17;;;;;;;;;;5040680;28;20090;-87
2022/05/30 06:02:04;;;;;;;0.30;0.30;;;;;;;;;;5055792;28;20040;-86
2022/05/30 06:04:30;;;;;;;0.20;0.20;;;;;;;;;;5033677;28;20032;-86
2022/05/30 06:07:01;;;;;;;0.30;0.30;;;;;;;;;;5038666;28;20127;-86
2022/05/30 06:09:27;;;;;;;0.20;0.20;;;;;;;;;;5039159;28;20078;-86
2022/05/30 06:11:56;;;;;;;0.10;0.10;;;;;;;;;;5038767;28;20063;-86
2022/05/30 06:14:23;;;;;;;0.17;0.17;;;;;;;;;;5038988;28;20039;-86
2022/05/30 06:16:49;;;;;;;0.10;0.10;;;;;;;;;;5038649;28;20427;-87
2022/05/30 06:19:16;;;;;;;0.10;0.10;;;;;;;;;;5039916;28;20444;-88
2022/05/30 06:21:42;;;;;;;0.10;0.10;;;;;;;;;;5038220;28;20064;-87
2022/05/30 06:24:10;;;;;;;0.20;0.20;;;;;;;;;;5039087;28;20083;-86
2022/05/30 06:26:36;;;;;;;0.10;0.10;;;;;;;;;;5038282;28;20405;-86
2022/05/30 06:29:02;;;;;;;0.20;0.20;;;;;;;;;;5055943;28;20040;-86
2022/05/30 06:31:30;;;;;;;0.20;0.20;;;;;;;;;;5039158;28;20043;-86
2022/05/30 06:33:56;;;;;;;0.10;0.10;;;;;;;;;;5038602;28;20036;-86
2022/05/30 06:36:23;;;;;;;0.10;0.10;;;;;;;;;;5038241;28;20040;-87
2022/05/30 06:38:50;;;;;;;0.22;0.22;;;;;;;;;;5038490;28;20040;-86
2022/05/30 06:41:17;;;;;;;0.17;0.17;;;;;;;;;;5055418;28;20119;-86
2022/05/30 06:43:45;;;;;;;0.20;0.20;;;;;;;;;;5038595;28;20131;-88
2022/05/30 06:46:14;;;;;;;0.30;0.30;;;;;;;;;;5038373;28;20041;-86
2022/05/30 06:48:40;;;;;;;0.32;0.32;;;;;;;;;;5035239;28;20553;-87
2022/05/30 06:51:08;;;;;;;0.10;0.10;;;;;;;;;;5032598;28;20036;-87
2022/05/30 06:53:34;;;;;;;0.00;0.00;;;;;;;;;;5039102;28;20604;-86
2022/05/30 06:56:00;;;;;;;0.10;0.10;;;;;;;;;;5039726;28;20409;-85
2022/05/30 06:58:26;;;;;;;0.10;0.10;;;;;;;;;;5056067;28;20486;-85
2022/05/30 07:00:52;;;;;;;0.10;0.10;;;;;;;;;;5038609;28;20044;-87
2022/05/30 07:03:19;;;;;;;0.20;0.20;;;;;;;;;;5040033;28;20457;-85
2022/05/30 07:05:46;;;;;;;0.13;0.13;;;;;;;;;;5038808;28;20040;-88
2022/05/30 07:08:12;;;;;;;0.10;0.10;;;;;;;;;;5039297;28;20045;-86
2022/05/30 07:10:39;;;;;;;0.20;0.20;;;;;;;;;;5038906;28;20553;-85
2022/05/30 07:13:05;;;;;;;0.20;0.20;;;;;;;;;;5036404;28;20044;-85
2022/05/30 07:15:35;;;;;;;0.20;0.20;;;;;;;;;;5030910;28;20037;-88
2022/05/30 07:18:06;;;;;;;0.20;0.20;;;;;;;;;;5038756;28;20036;-88
2022/05/30 07:20:32;;;;;;;0.20;0.20;;;;;;;;;;5040620;28;20064;-84
2022/05/30 07:22:59;;;;;;;0.20;0.20;;;;;;;;;;5037375;28;20072;-85
2022/05/30 07:25:25;;;;;;;0.10;0.10;;;;;;;;;;5041029;28;20074;-86
2022/05/30 07:27:51;;;;;;;0.20;0.20;;;;;;;;;;5042251;28;20432;-88
2022/05/30 07:30:17;;;;;;;0.10;0.10;;;;;;;;;;5041445;28;20040;-85
2022/05/30 07:32:44;;;;;;;0.20;0.20;;;;;;;;;;5041039;28;20066;-86
2022/05/30 07:35:10;;;;;;;0.20;0.20;;;;;;;;;;5041248;28;20044;-85
2022/05/30 07:37:36;;;;;;;0.13;0.13;;;;;;;;;;5039807;28;20127;-86
2022/05/30 07:40:02;;;;;;;0.10;0.10;;;;;;;;;;5035072;28;20040;-85
2022/05/30 07:42:28;;;;;;;0.13;0.13;;;;;;;;;;5024164;28;20040;-87
2022/05/30 07:45:00;;;;;;;0.10;0.10;;;;;;;;;;5054635;28;20094;-87
2022/05/30 07:47:30;;;;;;;0.20;0.20;;;;;;;;;;5051159;28;20036;-86
2022/05/30 07:50:02;;;;;;;0.10;0.10;;;;;;;;;;5035032;28;20482;-85
2022/05/30 07:52:30;;;;;;;0.20;0.20;;;;;;;;;;5042232;28;20076;-85
2022/05/30 07:54:57;;;;;;;0.10;0.10;;;;;;;;;;5034191;28;20041;-83
2022/05/30 07:57:50;;;;;;;0.10;0.10;;;;;;;;;;5040101;28;20074;-83
2022/05/30 08:00:10;;;;;;;0.10;0.10;;;;;;;;;;5051342;28;20059;-84
2022/05/30 08:02:38;;;;;;;0.10;0.10;;;;;;;;;;5052627;28;20452;-89
2022/05/30 08:05:04;;;;;;;0.20;0.20;;;;;;;;;;5036836;28;20119;-85
2022/05/30 08:07:30;;;;;;;0.10;0.10;;;;;;;;;;5055303;28;20063;-82
2022/05/30 08:09:56;;;;;;;0.15;0.15;;;;;;;;;;5036297;28;20037;-83
2022/05/30 08:12:23;;;;;;;0.20;0.20;;;;;;;;;;5055010;28;20052;-84
2022/05/30 08:14:49;;;;;;;0.10;0.10;;;;;;;;;;5042118;28;20047;-85
2022/05/30 08:17:15;;;;;;;0.10;0.10;;;;;;;;;;5041660;28;20505;-83
2022/05/30 08:19:41;;;;;;;0.22;0.22;;;;;;;;;;5041581;28;20166;-84
2022/05/30 08:22:09;;;;;;;0.00;0.00;;;;;;;;;;5041430;28;20177;-83
2022/05/30 08:24:36;;;;;;;0.20;0.20;;;;;;;;;;5032577;28;20032;-84
2022/05/30 08:27:03;;;;;;;0.17;0.17;;;;;;;;;;5037079;28;20127;-85
2022/05/30 08:29:30;;;;;;;0.05;0.05;;;;;;;;;;5034971;28;20044;-85
2022/05/30 08:31:56;;;;;;;0.10;0.10;;;;;;;;;;5036473;28;20387;-84
2022/05/30 08:34:22;;;;;;;0.10;0.10;;;;;;;;;;5037009;28;20069;-84
2022/05/30 08:36:48;;;;;;;0.00;0.00;;;;;;;;;;5033111;28;20448;-87
2022/05/30 08:42:00;;;;;;;0.20;0.20;;;;;;;;;;5046405;28;20036;-86
2022/05/30 08:44:29;;;;;;;0.20;0.20;;;;;;;;;;5037373;28;20029;-86
2022/05/30 08:47:03;;;;;;;0.03;0.03;;;;;;;;;;5035488;28;20115;-86
2022/05/30 08:49:45;;;;;;;0.10;0.10;;;;;;;;;;5039664;28;20093;-86
2022/05/30 08:52:26;;;;;;;0.13;0.13;;;;;;;;;;5053020;28;20119;-86
2022/05/30 08:55:11;;;;;;;0.10;0.10;;;;;;;;;;5034884;28;20094;-86
2022/05/30 08:57:54;;;;;;;0.10;0.10;;;;;;;;;;5034117;28;20509;-86
2022/05/30 09:00:40;;;;;;;0.13;0.13;;;;;;;;;;5041408;28;20123;-85
2022/05/30 09:03:27;;;;;;;0.10;0.10;;;;;;;;;;5036283;28;20414;-85
2022/05/30 09:05:55;;;;;;;0.20;0.20;;;;;;;;;;5033823;28;20037;-86
2022/05/30 09:08:25;;;;;;;0.10;0.10;;;;;;;;;;5036453;28;20037;-86
2022/05/30 09:10:55;;;;;;;0.20;0.20;;;;;;;;;;5039064;28;20398;-84
2022/05/30 09:13:26;;;;;;;0.20;0.20;;;;;;;;;;5038940;28;20033;-84
2022/05/30 09:15:52;;;;;;;0.20;0.20;;;;;;;;;;5035771;28;20060;-83
2022/05/30 09:18:29;;;;;;;0.20;0.20;;;;;;;;;;5036071;28;20067;-83
2022/05/30 09:20:55;;;;;;;0.10;0.10;;;;;;;;;;5038865;28;20033;-86
2022/05/30 09:23:22;;;;;;;0.10;0.10;;;;;;;;;;5038262;28;20037;-87
2022/05/30 09:25:57;;;;;;;0.10;0.10;;;;;;;;;;5033194;28;20064;-89
2022/05/30 09:28:28;;;;;;;0.13;0.13;;;;;;;;;;5027555;28;20127;-87
2022/05/30 09:31:03;;;;;;;0.05;0.05;;;;;;;;;;5039992;28;20400;-88
2022/05/30 09:33:29;;;;;;;;;;;;;;;;;;5059845;28;20393;-88
2022/05/30 09:36:11;;;;;;;0.10;0.10;;;;;;;;;;5036619;28;19960;-87
2022/05/30 09:38:45;;;;;;;0.00;0.00;;;;;;;;;;5039790;28;20039;-87
2022/05/30 09:41:22;;;;;;;0.10;0.10;;;;;;;;;;5039962;28;20043;-88
2022/05/30 09:43:50;;;;;;;0.10;0.10;;;;;;;;;;5032664;28;20059;-89
2022/05/30 09:46:23;;;;;;;0.10;0.10;;;;;;;;;;5042750;28;20042;-89
2022/05/30 09:49:00;;;;;;;0.10;0.10;;;;;;;;;;5039999;28;20044;-88
2022/05/30 09:51:36;;;;;;;0.15;0.15;;;;;;;;;;5056945;28;20061;-88
2022/05/30 09:54:03;;;;;;;0.05;0.05;;;;;;;;;;5041896;28;20068;-88
2022/05/30 09:56:30;;;;;;;0.05;0.05;;;;;;;;;;5040496;28;20044;-88
2022/05/30 09:59:00;;;;;;;0.03;0.03;;;;;;;;;;5034641;28;20039;-88
2022/05/30 10:01:27;;;;;;;0.15;0.15;;;;;;;;;;5040320;28;20096;-88
2022/05/30 10:03:59;;;;;;;0.20;0.20;;;;;;;;;;5035378;28;20033;-88
2022/05/30 10:06:27;;;;;;;0.17;0.17;;;;;;;;;;5036093;28;20044;-89
2022/05/30 10:09:17;;;;;;;0.20;0.20;;;;;;;;;;5036201;28;20037;-89
2022/05/30 10:11:45;;;;;;;0.20;0.20;;;;;;;;;;5052238;28;20071;-89
2022/05/30 10:14:21;;;;;;;0.10;0.10;;;;;;;;;;5038855;28;20090;-88
2022/05/30 10:16:47;;;;;;;0.10;0.10;;;;;;;;;;5036006;28;20041;-88
2022/05/30 10:19:24;;;;;;;0.08;0.08;;;;;;;;;;5033100;28;20033;-88
2022/05/30 10:30:44;;;;;;;0.10;0.10;;;;;;;;;;5057356;28;20055;-88
2022/05/30 10:33:10;;;;;;;0.10;0.10;;;;;;;;;;5040849;28;20143;-88
2022/05/30 10:35:42;;;;;;;0.20;0.20;;;;;;;;;;5038201;28;20067;-88
2022/05/30 10:38:11;;;;;;;0.00;0.00;;;;;;;;;;5033958;28;20093;-93
2022/05/30 10:40:57;;;;;;;0.10;0.10;;;;;;;;;;5049276;28;20088;-88
2022/05/30 10:43:26;;;;;;;0.10;0.10;;;;;;;;;;5031789;28;20498;-88
2022/05/30 10:45:56;;;;;;;0.10;0.10;;;;;;;;;;5040194;28;20068;-89
2022/05/30 10:48:31;;;;;;;0.10;0.10;;;;;;;;;;5037315;28;20037;-90
2022/05/30 10:51:07;;;;;;;0.15;0.15;;;;;;;;;;5032056;28;20525;-89
2022/05/30 10:53:40;;;;;;;0.10;0.10;;;;;;;;;;5036870;28;20059;-89
2022/05/30 10:56:15;;;;;;;0.10;0.10;;;;;;;;;;5047502;28;20040;-91
2022/05/30 10:58:52;;;;;;;0.20;0.20;;;;;;;;;;5045093;28;20033;-88
2022/05/30 11:01:33;;;;;;;0.17;0.17;;;;;;;;;;5019128;28;20468;-88
2022/05/30 11:04:18;;;;;;;0.17;0.17;;;;;;;;;;5041920;28;20186;-88
2022/05/30 11:06:45;;;;;;;0.20;0.20;;;;;;;;;;5043628;28;20043;-87
2022/05/30 11:09:20;;;;;;;0.10;0.10;;;;;;;;;;5042265;28;20043;-86
2022/05/30 11:11:47;;;;;;;0.10;0.10;;;;;;;;;;5055531;28;20048;-87
2022/05/30 11:14:27;;;;;;;0.17;0.17;;;;;;;;;;5040765;28;20037;-89
2022/05/30 11:17:05;;;;;;;0.20;0.20;;;;;;;;;;5041288;28;20095;-87
2022/05/30 11:20:04;;;;;;;0.10;0.10;;;;;;;;;;5042131;28;20555;-87
2022/05/30 11:22:42;;;;;;;0.10;0.10;;;;;;;;;;5004949;28;20071;-88
2022/05/30 11:25:16;;;;;;;0.10;0.10;;;;;;;;;;5037834;28;20062;-88
2022/05/30 11:27:43;;;;;;;0.00;0.00;;;;;;;;;;5034961;28;20173;-88
2022/05/30 11:30:09;;;;;;;0.05;0.05;;;;;;;;;;5057096;28;20500;-88
2022/05/30 11:33:05;;;;;;;0.08;0.08;;;;;;;;;;5042899;28;20507;-87
2022/05/30 11:35:43;;;;;;;0.10;0.10;;;;;;;;;;5026693;28;20543;-88
2022/05/30 11:38:16;;;;;;;0.10;0.10;;;;;;;;;;5043009;28;20055;-89
2022/05/30 11:40:58;;;;;;;0.10;0.10;;;;;;;;;;5058398;28;20158;-89
2022/05/30 11:43:25;;;;;;;0.10;0.10;;;;;;;;;;5041448;28;20047;-92
2022/05/30 11:45:54;;;;;;;0.20;0.20;;;;;;;;;;5041733;28;20037;-89
2022/05/30 11:48:30;;;;;;;0.20;0.20;;;;;;;;;;5036522;28;20072;-87
2022/05/30 11:50:56;;;;;;;0.00;0.00;;;;;;;;;;5040153;28;20040;-87
2022/05/30 11:53:28;;;;;;;0.03;0.03;;;;;;;;;;5043445;28;20040;-87
2022/05/30 11:56:05;;;;;;;0.05;0.05;;;;;;;;;;5043726;28;20470;-87
2022/05/30 11:58:31;;;;;;;0.10;0.10;;;;;;;;;;5042631;28;20040;-88
2022/05/30 12:00:58;;;;;;;0.10;0.10;;;;;;;;;;5043629;28;20081;-88
2022/05/30 12:03:34;;;;;;;0.20;0.20;;;;;;;;;;5044269;28;20117;-89
2022/05/30 12:06:03;;;;;;;0.10;0.10;;;;;;;;;;5044120;28;20506;-89
2022/05/30 12:08:47;;;;;;;0.20;0.20;;;;;;;;;;5044707;28;20040;-89
2022/05/30 12:11:27;;;;;;;0.10;0.10;;;;;;;;;;5043860;28;20455;-88
2022/05/30 12:13:53;;;;;;;0.10;0.10;;;;;;;;;;5043543;28;20405;-89
2022/05/30 12:16:31;;;;;;;0.10;0.10;;;;;;;;;;5043068;28;20067;-88
2022/05/30 12:24:51;;;;;;;0.10;0.10;;;;;;;;;;5049959;28;20048;-90
2022/05/30 12:27:29;;;;;;;0.03;0.03;;;;;;;;;;5047681;28;20044;-91
2022/05/30 12:29:59;;;;;;;0.10;0.10;;;;;;;;;;5045936;28;20037;-90
2022/05/30 12:32:29;;;;;;;0.20;0.20;;;;;;;;;;5039751;28;20051;-90
2022/05/30 12:35:05;;;;;;;0.10;0.10;;;;;;;;;;5044056;28;20037;-91
2022/05/30 12:37:52;;;;;;;0.10;0.10;;;;;;;;;;5045541;28;20041;-90
2022/05/30 12:40:27;;;;;;;0.20;0.20;;;;;;;;;;5044304;28;20037;-91
2022/05/30 12:43:02;;;;;;;0.20;0.20;;;;;;;;;;5046749;28;20037;-90
2022/05/30 12:45:28;;;;;;;;;;;;;;;;;;5046647;28;20040;-90
2022/05/30 12:47:55;;;;;;;0.10;0.10;;;;;;;;;;5047583;28;20007;-90
2022/05/30 12:50:40;;;;;;;0.10;0.10;;;;;;;;;;5047002;28;20094;-92
2022/05/30 12:53:07;;;;;;;0.10;0.10;;;;;;;;;;5042472;28;20044;-92
2022/05/30 12:55:43;;;;;;;0.08;0.08;;;;;;;;;;5024379;28;20040;-94
2022/05/30 12:58:10;;;;;;;0.10;0.10;;;;;;;;;;5045728;28;20033;-90
2022/05/30 13:00:42;;;;;;;0.10;0.10;;;;;;;;;;5045980;28;20067;-90
2022/05/30 13:03:32;;;;;;;0.10;0.10;;;;;;;;;;5042699;28;20616;-91
2022/05/30 13:06:05;;;;;;;0.10;0.10;;;;;;;;;;5057389;28;20126;-91
2022/05/30 13:08:51;;;;;;;0.10;0.10;;;;;;;;;;5044878;28;20043;-87
2022/05/30 13:11:21;;;;;;;0.05;0.05;;;;;;;;;;5044089;28;20539;-91
2022/05/30 13:13:49;;;;;;;0.10;0.10;;;;;;;;;;5034053;28;20083;-92
2022/05/30 13:16:25;;;;;;;0.10;0.10;;;;;;;;;;5044075;28;20063;-90
2022/05/30 13:18:51;;;;;;;0.00;0.00;;;;;;;;;;5034426;28;20437;-89
2022/05/30 13:21:20;;;;;;;0.10;0.10;;;;;;;;;;5046474;28;20032;-90
2022/05/30 13:23:46;;;;;;;0.10;0.10;;;;;;;;;;5044922;28;20918;-89
2022/05/30 13:26:17;;;;;;;0.10;0.10;;;;;;;;;;5040089;28;20451;-90
2022/05/30 13:28:45;;;;;;;0.00;0.00;;;;;;;;;;5045395;28;20041;-88
2022/05/30 13:31:12;;;;;;;0.13;0.13;;;;;;;;;;5042518;28;20121;-90
2022/05/30 13:33:40;;;;;;;0.10;0.10;;;;;;;;;;5040225;28;20037;-89
2022/05/30 13:36:15;;;;;;;0.08;0.08;;;;;;;;;;5031328;28;20120;-88
2022/05/30 13:38:43;;;;;;;0.00;0.00;;;;;;;;;;5040481;28;20040;-88
2022/05/30 13:41:16;;;;;;;0.10;0.10;;;;;;;;;;5040536;28;20112;-88
2022/05/30 13:43:42;;;;;;;0.10;0.10;;;;;;;;;;5041096;28;20058;-88
2022/05/30 13:46:08;;;;;;;0.10;0.10;;;;;;;;;;5039397;28;20040;-88
2022/05/30 13:48:35;;;;;;;0.00;0.00;;;;;;;;;;5035401;28;20058;-88
2022/05/30 13:51:11;;;;;;;0.03;0.03;;;;;;;;;;5040406;28;20033;-88
2022/05/30 13:53:45;;;;;;;0.10;0.10;;;;;;;;;;5053541;28;20473;-88
2022/05/30 13:56:26;;;;;;;0.05;0.05;;;;;;;;;;5074436;28;20100;-89
2022/05/30 13:58:55;;;;;;;0.10;0.10;;;;;;;;;;5034474;28;20112;-87
2022/05/30 14:01:23;;;;;;;0.00;0.00;;;;;;;;;;5038299;28;20102;-85
2022/05/30 14:04:02;;;;;;;0.10;0.10;;;;;;;;;;5030353;28;20105;-87
2022/05/30 14:06:31;;;;;;;0.10;0.10;;;;;;;;;;5039392;28;20044;-88
2022/05/30 14:08:58;;;;;;;0.05;0.05;;;;;;;;;;5040793;28;20153;-87
2022/05/30 14:11:25;;;;;;;0.00;0.00;;;;;;;;;;5040752;28;20037;-87
2022/05/30 14:13:54;;;;;;;0.00;0.00;;;;;;;;;;5040999;28;20127;-88
2022/05/30 14:16:32;;;;;;;0.00;0.00;;;;;;;;;;5052869;28;20505;-90
2022/05/30 14:19:02;;;;;;;0.10;0.10;;;;;;;;;;5034308;28;20068;-87
2022/05/30 14:21:28;;;;;;;0.00;0.00;;;;;;;;;;5035727;28;20043;-87
2022/05/30 14:24:03;;;;;;;0.20;0.20;;;;;;;;;;5037887;28;20330;-88
2022/05/30 14:26:30;;;;;;;0.10;0.10;;;;;;;;;;5036262;28;20402;-89
2022/05/30 14:29:01;;;;;;;0.03;0.03;;;;;;;;;;5022867;28;20721;-88
2022/05/30 14:31:32;;;;;;;0.10;0.10;;;;;;;;;;5033069;28;20036;-89
2022/05/30 14:34:00;;;;;;;0.10;0.10;;;;;;;;;;5042223;28;20093;-87
2022/05/30 14:36:28;;;;;;;0.00;0.00;;;;;;;;;;5032258;28;20052;-89
2022/05/30 14:39:09;;;;;;;0.05;0.05;;;;;;;;;;5038900;28;20051;-93
2022/05/30 14:41:35;;;;;;;0.10;0.10;;;;;;;;;;5040313;28;20081;-89
2022/05/30 14:44:01;;;;;;;0.10;0.10;;;;;;;;;;5034432;28;20033;-88
2022/05/30 14:46:35;;;;;;;0.03;0.03;;;;;;;;;;5028676;28;20057;-89
2022/05/30 14:49:01;;;;;;;0.10;0.10;;;;;;;;;;5032664;28;20394;-88
2022/05/30 14:51:32;;;;;;;0.10;0.10;;;;;;;;;;5050774;28;20501;-90
2022/05/30 14:54:07;;;;;;;0.00;0.00;;;;;;;;;;5034383;28;20087;-89
2022/05/30 14:56:33;;;;;;;0.10;0.10;;;;;;;;;;5036526;28;20127;-88
2022/05/30 14:59:01;;;;;;;0.10;0.10;;;;;;;;;;5037246;28;20094;-91
2022/05/30 15:01:29;;;;;;;0.13;0.13;;;;;;;;;;5041315;28;20551;-90
2022/05/30 15:04:12;;;;;;;0.00;0.00;;;;;;;;;;5056960;28;20040;-89
2022/05/30 15:06:54;;;;;;;0.05;0.05;;;;;;;;;;5042656;28;20398;-90
2022/05/30 15:09:23;;;;;;;0.20;0.20;;;;;;;;;;5039630;28;20052;-90
2022/05/30 15:11:49;;;;;;;0.10;0.10;;;;;;;;;;5039210;28;20405;-90
2022/05/30 15:14:21;;;;;;;0.00;0.00;;;;;;;;;;5043052;28;20584;-90
2022/05/30 15:16:48;;;;;;;0.10;0.10;;;;;;;;;;5044100;28;20080;-90
2022/05/30 15:19:14;;;;;;;0.10;0.10;;;;;;;;;;5043517;28;20070;-90
2022/05/30 15:21:43;;;;;;;0.10;0.10;;;;;;;;;;5060654;28;20064;-90
2022/05/30 15:24:13;;;;;;;0.10;0.10;;;;;;;;;;5040252;28;20393;-89
2022/05/30 15:26:39;;;;;;;0.05;0.05;;;;;;;;;;5038897;28;20032;-88